Time;durP1;ratioP1;P1;durP2;ratioP2;P2;SDS_P1;SDS_P2;PMS_P1;PMS_P2;Temp;Humidity;BMP_temperature;BMP_pressure;BME280_temperature;BME280_humidity;BME280_pressure;Samples;Min_cycle;Max_cycle;Signal;HPM_P1;HPM_P2
2024/01/15 00:01:26;;;;;;;;;;;-2.00;88.20;;;;;;5010738;28;82689;-45
2024/01/15 00:03:52;;;;;;;;;;;-2.00;88.30;;;;;;5011378;28;82390;-45
2024/01/15 00:06:17;;;;;;;;;;;-2.00;88.40;;;;;;5011589;28;83685;-45
2024/01/15 00:08:43;;;;;;;;;;;-2.00;88.10;;;;;;5010162;28;81879;-45
2024/01/15 00:11:09;;;;;;;;;;;-2.00;88.10;;;;;;5013745;28;83550;-44
2024/01/15 00:13:34;;;;;;;;;;;-2.00;88.10;;;;;;5010341;28;81972;-44
2024/01/15 00:16:00;;;;;;;;;;;-2.00;88.20;;;;;;5011733;28;82284;-45
2024/01/15 00:18:25;;;;;;;;;;;-2.00;88.70;;;;;;5012389;28;81574;-45
2024/01/15 00:20:51;;;;;;;;;;;-2.00;88.00;;;;;;5011952;28;81819;-45
2024/01/15 00:23:16;;;;;;;;;;;-2.00;88.10;;;;;;5011306;28;84019;-45
2024/01/15 00:25:42;;;;;;;;;;;-2.00;88.20;;;;;;5011145;28;82945;-47
2024/01/15 00:28:07;;;;;;;;;;;-2.00;88.10;;;;;;5010232;28;83884;-45
2024/01/15 00:30:33;;;;;;;;;;;-2.00;88.20;;;;;;5011583;28;82382;-44
2024/01/15 00:32:58;;;;;;;;;;;-2.00;88.10;;;;;;5014071;28;81927;-45
2024/01/15 00:35:24;;;;;;;;;;;-2.10;88.10;;;;;;5010621;28;82420;-45
2024/01/15 00:37:50;;;;;;;;;;;-2.10;88.20;;;;;;5010329;28;82648;-45
2024/01/15 00:40:16;;;;;;;;;;;-2.10;88.30;;;;;;5011535;28;82000;-45
2024/01/15 00:42:42;;;;;;;;;;;-2.10;88.30;;;;;;5009803;28;81765;-45
2024/01/15 00:45:08;;;;;;;;;;;-2.10;88.20;;;;;;5009220;28;82033;-45
2024/01/15 00:47:34;;;;;;;;;;;-2.10;88.40;;;;;;5010400;28;81941;-45
2024/01/15 00:50:00;;;;;;;;;;;-2.10;88.20;;;;;;5010379;28;84493;-44
2024/01/15 00:52:26;;;;;;;;;;;-2.10;88.30;;;;;;5011294;28;81935;-44
2024/01/15 00:54:51;;;;;;;;;;;-2.10;88.20;;;;;;5013901;28;82629;-46
2024/01/15 00:57:18;;;;;;;;;;;-2.10;88.20;;;;;;5011253;28;81992;-45
2024/01/15 00:59:44;;;;;;;;;;;-2.10;88.20;;;;;;5009570;28;82931;-45
2024/01/15 01:02:10;;;;;;;;;;;-2.10;88.00;;;;;;5010582;28;81844;-45
2024/01/15 01:04:36;;;;;;;;;;;-2.10;88.10;;;;;;5010977;28;82412;-44
2024/01/15 01:07:01;;;;;;;;;;;-2.10;88.30;;;;;;5009043;28;82912;-44
2024/01/15 01:09:29;;;;;;;;;;;-2.10;88.10;;;;;;5010381;28;82393;-45
2024/01/15 01:11:55;;;;;;;;;;;-2.20;88.20;;;;;;5010234;28;81881;-45
2024/01/15 01:14:21;;;;;;;;;;;-2.20;88.20;;;;;;5008981;28;82980;-45
2024/01/15 01:16:47;;;;;;;;;;;-2.10;88.40;;;;;;5013426;28;82326;-44
2024/01/15 01:19:12;;;;;;;;;;;-2.10;88.20;;;;;;5009984;28;82127;-45
2024/01/15 01:21:38;;;;;;;;;;;-2.10;88.40;;;;;;5010014;28;82438;-44
2024/01/15 01:24:03;;;;;;;;;;;-2.20;88.10;;;;;;5010809;28;82227;-43
2024/01/15 01:26:29;;;;;;;;;;;-2.20;88.20;;;;;;5011393;28;81943;-45
2024/01/15 01:28:55;;;;;;;;;;;-2.20;88.30;;;;;;5008851;28;81913;-46
2024/01/15 01:31:21;;;;;;;;;;;-2.20;88.20;;;;;;5009348;28;81348;-46
2024/01/15 01:33:46;;;;;;;;;;;-2.20;88.20;;;;;;5005811;28;81865;-44
2024/01/15 01:36:12;;;;;;;;;;;-2.20;88.30;;;;;;5009615;28;82812;-44
2024/01/15 01:38:38;;;;;;;;;;;-2.20;88.20;;;;;;5012131;28;82814;-44
2024/01/15 01:41:03;;;;;;;;;;;-2.20;88.30;;;;;;5010533;28;82447;-44
2024/01/15 01:43:29;;;;;;;;;;;-2.20;88.30;;;;;;5008829;28;81885;-45
2024/01/15 01:45:56;;;;;;;;;;;-2.20;88.20;;;;;;5009324;28;81868;-46
2024/01/15 01:48:22;;;;;;;;;;;-2.20;88.20;;;;;;5010189;28;82439;-45
2024/01/15 01:50:47;;;;;;;;;;;-2.20;88.20;;;;;;5010509;28;81956;-46
2024/01/15 01:53:13;;;;;;;;;;;-2.20;88.20;;;;;;5009073;28;82769;-46
2024/01/15 01:55:39;;;;;;;;;;;-2.20;88.20;;;;;;5009884;28;81745;-45
2024/01/15 01:58:04;;;;;;;;;;;-2.20;88.20;;;;;;5011852;28;82092;-44
2024/01/15 02:00:30;;;;;;;;;;;-2.20;88.30;;;;;;5008076;28;82827;-46
2024/01/15 02:02:56;;;;;;;;;;;-2.20;88.30;;;;;;5006637;28;82759;-46
2024/01/15 02:05:22;;;;;;;;;;;-2.20;88.10;;;;;;5009195;28;82624;-45
2024/01/15 02:07:47;;;;;;;;;;;-2.20;88.20;;;;;;5009659;28;81882;-44
2024/01/15 02:10:13;;;;;;;;;;;-2.20;88.10;;;;;;5009872;28;81757;-46
2024/01/15 02:12:39;;;;;;;;;;;-2.20;88.10;;;;;;5001712;28;81967;-44
2024/01/15 02:15:04;;;;;;;;;;;-2.20;88.30;;;;;;5006741;28;83310;-45
2024/01/15 02:17:30;;;;;;;;;;;-2.30;88.20;;;;;;5008810;28;82065;-45
2024/01/15 02:19:56;;;;;;;;;;;-2.30;88.10;;;;;;5013074;28;81199;-44
2024/01/15 02:22:21;;;;;;;;;;;-2.30;88.80;;;;;;5006263;28;81994;-44
2024/01/15 02:24:47;;;;;;;;;;;-2.30;88.20;;;;;;5009012;28;81836;-44
2024/01/15 02:27:12;;;;;;;;;;;-2.30;88.30;;;;;;5009019;28;83310;-44
2024/01/15 02:29:38;;;;;;;;;;;-2.30;88.30;;;;;;5009323;28;82002;-44
2024/01/15 02:32:08;;;;;;;;;;;-2.30;88.40;;;;;;5008241;28;82799;-45
2024/01/15 02:34:34;;;;;;;;;;;-2.40;88.30;;;;;;5009692;28;82539;-44
2024/01/15 02:36:59;;;;;;;;;;;-2.30;88.40;;;;;;5009233;28;81950;-44
2024/01/15 02:39:25;;;;;;;;;;;-2.30;88.30;;;;;;5009051;28;81929;-45
2024/01/15 02:41:50;;;;;;;;;;;-2.30;88.30;;;;;;5012433;28;82426;-44
2024/01/15 02:44:16;;;;;;;;;;;-2.30;88.40;;;;;;5009993;28;81694;-45
2024/01/15 02:46:42;;;;;;;;;;;-2.40;88.30;;;;;;5008498;28;82365;-44
2024/01/15 02:49:07;;;;;;;;;;;-2.30;88.40;;;;;;5009108;28;81954;-45
2024/01/15 02:51:33;;;;;;;;;;;-2.30;88.30;;;;;;5008550;28;82917;-45
2024/01/15 02:53:58;;;;;;;;;;;-2.30;88.20;;;;;;5008652;28;82132;-45
2024/01/15 02:56:24;;;;;;;;;;;-2.30;88.30;;;;;;5006723;28;81782;-46
2024/01/15 02:58:49;;;;;;;;;;;-2.40;88.20;;;;;;5008602;28;81987;-46
2024/01/15 03:01:18;;;;;;;;;;;-2.40;88.30;;;;;;5007611;28;82253;-44
2024/01/15 03:03:43;;;;;;;;;;;-2.40;88.30;;;;;;5012082;28;81938;-45
2024/01/15 03:06:09;;;;;;;;;;;-2.40;88.30;;;;;;5008961;28;82438;-45
2024/01/15 03:08:35;;;;;;;;;;;-2.40;88.30;;;;;;5009722;28;81800;-44
2024/01/15 03:11:01;;;;;;;;;;;-2.40;88.40;;;;;;5010797;28;82789;-45
2024/01/15 03:13:26;;;;;;;;;;;-2.40;88.40;;;;;;5009804;28;82313;-44
2024/01/15 03:15:52;;;;;;;;;;;-2.40;88.40;;;;;;5010274;28;82949;-45
2024/01/15 03:18:17;;;;;;;;;;;-2.40;88.30;;;;;;5011801;28;82536;-44
2024/01/15 03:20:43;;;;;;;;;;;-2.40;88.90;;;;;;5012356;28;83327;-44
2024/01/15 03:23:08;;;;;;;;;;;-2.40;88.40;;;;;;5010879;28;81937;-45
2024/01/15 03:25:34;;;;;;;;;;;-2.40;88.40;;;;;;5014809;28;81876;-44
2024/01/15 03:27:59;;;;;;;;;;;-2.40;88.40;;;;;;5012160;28;82122;-46
2024/01/15 03:30:25;;;;;;;;;;;-2.50;88.40;;;;;;5012560;28;81744;-45
2024/01/15 03:32:50;;;;;;;;;;;-2.40;88.50;;;;;;5012107;28;81891;-45
2024/01/15 03:35:16;;;;;;;;;;;-2.40;88.50;;;;;;5012381;28;82020;-45
2024/01/15 03:37:42;;;;;;;;;;;-2.40;88.50;;;;;;5012240;28;82201;-44
2024/01/15 03:40:08;;;;;;;;;;;-2.40;88.40;;;;;;5011592;28;83682;-45
2024/01/15 03:42:33;;;;;;;;;;;-2.40;88.50;;;;;;5012290;28;82112;-44
2024/01/15 03:44:59;;;;;;;;;;;-2.40;88.40;;;;;;5014960;28;81936;-44
2024/01/15 03:47:24;;;;;;;;;;;-2.50;88.40;;;;;;5010339;28;81914;-44
2024/01/15 03:49:50;;;;;;;;;;;-2.50;88.40;;;;;;5012274;28;81863;-45
2024/01/15 03:52:15;;;;;;;;;;;-2.50;88.40;;;;;;5012081;28;82233;-44
2024/01/15 03:54:41;;;;;;;;;;;-2.50;88.50;;;;;;5010779;28;82538;-44
2024/01/15 03:57:07;;;;;;;;;;;-2.50;88.40;;;;;;5012389;28;81756;-44
2024/01/15 03:59:32;;;;;;;;;;;-2.50;88.50;;;;;;5011633;28;82557;-46
2024/01/15 04:01:58;;;;;;;;;;;-2.50;88.50;;;;;;5010864;28;81912;-44
2024/01/15 04:04:23;;;;;;;;;;;-2.50;88.50;;;;;;5010413;28;82910;-45
2024/01/15 04:06:49;;;;;;;;;;;-2.50;88.60;;;;;;5013768;28;82437;-44
2024/01/15 04:09:14;;;;;;;;;;;-2.50;88.40;;;;;;5011820;28;82324;-44
2024/01/15 04:11:40;;;;;;;;;;;-2.50;88.40;;;;;;5011307;28;83368;-44
2024/01/15 04:14:06;;;;;;;;;;;-2.50;88.30;;;;;;5011453;28;81970;-44
2024/01/15 04:16:31;;;;;;;;;;;-2.50;88.40;;;;;;5010789;28;81903;-45
2024/01/15 04:18:57;;;;;;;;;;;-2.50;88.40;;;;;;5011176;28;82270;-46
2024/01/15 04:21:22;;;;;;;;;;;-2.50;88.50;;;;;;5011103;28;81229;-45
2024/01/15 04:23:48;;;;;;;;;;;-2.50;88.50;;;;;;5008430;28;82030;-45
2024/01/15 04:26:13;;;;;;;;;;;-2.50;88.50;;;;;;5010851;28;83250;-44
2024/01/15 04:28:40;;;;;;;;;;;-2.50;88.60;;;;;;5011475;28;82805;-44
2024/01/15 04:31:05;;;;;;;;;;;-2.50;88.50;;;;;;5010404;28;82612;-44
2024/01/15 04:33:31;;;;;;;;;;;-2.50;88.50;;;;;;5010208;28;82626;-44
2024/01/15 04:36:01;;;;;;;;;;;-2.50;88.60;;;;;;5011115;28;81830;-45
2024/01/15 04:38:26;;;;;;;;;;;-2.60;88.50;;;;;;5011231;28;82407;-44
2024/01/15 04:40:52;;;;;;;;;;;-2.60;88.50;;;;;;5009806;28;82564;-44
2024/01/15 04:43:17;;;;;;;;;;;-2.60;88.50;;;;;;5011018;28;82226;-45
2024/01/15 04:45:43;;;;;;;;;;;-2.60;88.60;;;;;;5010263;28;81747;-45
2024/01/15 04:48:08;;;;;;;;;;;-2.60;88.60;;;;;;5007498;28;81967;-44
2024/01/15 04:50:34;;;;;;;;;;;-2.60;89.10;;;;;;5013678;28;82772;-45
2024/01/15 04:52:59;;;;;;;;;;;-2.60;88.60;;;;;;5006224;28;82871;-45
2024/01/15 04:55:25;;;;;;;;;;;-2.60;88.70;;;;;;5011043;28;82676;-45
2024/01/15 04:57:50;;;;;;;;;;;-2.60;88.60;;;;;;5010682;28;83521;-45
2024/01/15 05:00:16;;;;;;;;;;;-2.60;88.60;;;;;;5010969;28;81983;-45
2024/01/15 05:02:41;;;;;;;;;;;-2.60;88.60;;;;;;5006914;28;81978;-44
2024/01/15 05:05:07;;;;;;;;;;;-2.60;88.70;;;;;;5009868;28;82474;-44
2024/01/15 05:07:33;;;;;;;;;;;-2.60;88.70;;;;;;5010615;28;81986;-45
2024/01/15 05:09:58;;;;;;;;;;;-2.60;88.50;;;;;;5010956;28;81701;-45
2024/01/15 05:12:24;;;;;;;;;;;-2.60;88.60;;;;;;5012140;28;82325;-45
2024/01/15 05:14:49;;;;;;;;;;;-2.70;88.60;;;;;;5007909;28;81922;-44
2024/01/15 05:17:15;;;;;;;;;;;-2.60;88.60;;;;;;5008357;28;84319;-45
2024/01/15 05:19:40;;;;;;;;;;;-2.60;88.60;;;;;;5009100;28;82094;-45
2024/01/15 05:22:06;;;;;;;;;;;-2.70;88.50;;;;;;5011120;28;81895;-45
2024/01/15 05:24:31;;;;;;;;;;;-2.70;88.50;;;;;;5011415;28;82566;-45
2024/01/15 05:26:57;;;;;;;;;;;-2.60;88.50;;;;;;5008294;28;82833;-44
2024/01/15 05:29:23;;;;;;;;;;;-2.60;88.30;;;;;;5010597;28;82967;-45
2024/01/15 05:31:48;;;;;;;;;;;-2.60;88.30;;;;;;5009215;28;82434;-45
2024/01/15 05:34:14;;;;;;;;;;;-2.60;88.30;;;;;;5011830;28;81302;-44
2024/01/15 05:36:39;;;;;;;;;;;-2.70;88.40;;;;;;5009451;28;82563;-45
2024/01/15 05:39:05;;;;;;;;;;;-2.70;88.40;;;;;;5010697;28;81958;-45
2024/01/15 05:41:30;;;;;;;;;;;-2.70;88.50;;;;;;5009286;28;82990;-44
2024/01/15 05:43:56;;;;;;;;;;;-2.70;88.50;;;;;;5009682;28;82423;-44
2024/01/15 05:46:21;;;;;;;;;;;-2.70;88.50;;;;;;5010337;28;81881;-46
2024/01/15 05:48:47;;;;;;;;;;;-2.70;88.60;;;;;;5009464;28;82743;-44
2024/01/15 05:51:13;;;;;;;;;;;-2.70;88.50;;;;;;5009825;28;81922;-44
2024/01/15 05:53:41;;;;;;;;;;;-2.70;88.60;;;;;;5013179;28;81785;-44
2024/01/15 05:56:07;;;;;;;;;;;-2.70;88.70;;;;;;5008976;28;82793;-44
2024/01/15 05:58:32;;;;;;;;;;;-2.70;88.60;;;;;;5009581;28;81337;-45
2024/01/15 06:00:58;;;;;;;;;;;-2.70;88.70;;;;;;5009830;28;82242;-45
2024/01/15 06:03:23;;;;;;;;;;;-2.70;88.70;;;;;;5007048;28;83463;-45
2024/01/15 06:05:49;;;;;;;;;;;-2.70;88.60;;;;;;5009659;28;82892;-45
2024/01/15 06:08:14;;;;;;;;;;;-2.70;88.80;;;;;;5009413;28;83642;-47
2024/01/15 06:10:40;;;;;;;;;;;-2.70;88.80;;;;;;5009999;28;82541;-44
2024/01/15 06:13:05;;;;;;;;;;;-2.70;88.80;;;;;;5008431;28;81942;-44
2024/01/15 06:15:31;;;;;;;;;;;-2.70;88.80;;;;;;5011312;28;83952;-45
2024/01/15 06:17:56;;;;;;;;;;;-2.70;88.70;;;;;;5004720;28;82021;-44
2024/01/15 06:20:22;;;;;;;;;;;-2.70;88.70;;;;;;5008018;28;82682;-45
2024/01/15 06:22:48;;;;;;;;;;;-2.70;88.70;;;;;;5010133;28;82886;-45
2024/01/15 06:25:13;;;;;;;;;;;-2.70;88.70;;;;;;5009668;28;81998;-45
2024/01/15 06:27:39;;;;;;;;;;;-2.70;88.70;;;;;;5009518;28;81903;-44
2024/01/15 06:30:05;;;;;;;;;;;-2.80;88.70;;;;;;5008508;28;84356;-45
2024/01/15 06:32:30;;;;;;;;;;;-2.80;88.80;;;;;;5009017;28;82267;-45
2024/01/15 06:34:56;;;;;;;;;;;-2.80;88.70;;;;;;5009030;28;81879;-46
2024/01/15 06:37:22;;;;;;;;;;;-2.70;88.70;;;;;;5011921;28;81913;-45
2024/01/15 06:39:47;;;;;;;;;;;-2.80;88.70;;;;;;5009635;28;82965;-44
2024/01/15 06:42:13;;;;;;;;;;;-2.80;88.80;;;;;;5010225;28;81933;-44
2024/01/15 06:44:38;;;;;;;;;;;-2.80;88.70;;;;;;5008564;28;87149;-44
2024/01/15 06:47:05;;;;;;;;;;;-2.80;88.70;;;;;;5006741;28;86808;-45
2024/01/15 06:49:31;;;;;;;;;;;-2.80;88.70;;;;;;5009059;28;87580;-45
2024/01/15 06:51:56;;;;;;;;;;;-2.80;88.70;;;;;;5009614;28;86964;-46
2024/01/15 06:54:23;;;;;;;;;;;-2.80;88.70;;;;;;5009346;28;87978;-46
2024/01/15 06:56:49;;;;;;;;;;;-2.80;88.70;;;;;;5009284;28;88673;-45
2024/01/15 06:59:14;;;;;;;;;;;-2.80;88.70;;;;;;5012602;28;86979;-45
2024/01/15 07:01:40;;;;;;;;;;;-2.80;88.80;;;;;;5006417;28;87560;-45
2024/01/15 07:04:05;;;;;;;;;;;-2.80;88.90;;;;;;5006630;28;87256;-44
2024/01/15 07:06:31;;;;;;;;;;;-2.80;88.80;;;;;;5009722;28;86971;-45
2024/01/15 07:08:57;;;;;;;;;;;-2.80;88.90;;;;;;5008856;28;87400;-46
2024/01/15 07:11:23;;;;;;;;;;;-2.80;88.90;;;;;;5009829;28;86290;-45
2024/01/15 07:13:49;;;;;;;;;;;-2.80;88.80;;;;;;5009299;28;87077;-44
2024/01/15 07:16:15;;;;;;;;;;;-2.80;88.80;;;;;;5008326;28;88283;-45
2024/01/15 07:18:40;;;;;;;;;;;-2.80;88.70;;;;;;5006874;28;88393;-45
2024/01/15 07:21:06;;;;;;;;;;;-2.80;88.70;;;;;;5008279;28;87639;-46
2024/01/15 07:23:31;;;;;;;;;;;-2.80;88.70;;;;;;5007129;28;86985;-44
2024/01/15 07:25:57;;;;;;;;;;;-2.80;88.80;;;;;;5008712;28;87698;-46
2024/01/15 07:28:23;;;;;;;;;;;-2.70;88.90;;;;;;5008517;28;88527;-44
2024/01/15 07:30:48;;;;;;;;;;;-2.80;88.80;;;;;;5008477;28;87017;-45
2024/01/15 07:33:14;;;;;;;;;;;-2.80;88.70;;;;;;5007704;28;87714;-44
2024/01/15 07:35:39;;;;;;;;;;;-2.80;88.90;;;;;;5008569;28;86745;-46
2024/01/15 07:38:05;;;;;;;;;;;-2.70;88.70;;;;;;5009163;28;86987;-45
2024/01/15 07:40:30;;;;;;;;;;;-2.70;88.70;;;;;;5009096;28;87042;-45
2024/01/15 07:42:56;;;;;;;;;;;-2.70;88.60;;;;;;5011132;28;88143;-45
2024/01/15 07:45:22;;;;;;;;;;;-2.60;88.70;;;;;;5009123;28;87886;-45
2024/01/15 07:47:47;;;;;;;;;;;-2.60;88.50;;;;;;5008697;28;87730;-45
2024/01/15 07:50:13;;;;;;;;;;;-2.50;88.40;;;;;;5004183;28;87065;-45
2024/01/15 07:52:39;;;;;;;;;;;-2.60;88.30;;;;;;5008813;28;87029;-47
2024/01/15 07:55:05;;;;;;;;;;;-2.50;88.00;;;;;;5007646;28;87892;-44
2024/01/15 07:57:31;;;;;;;;;;;-2.50;87.90;;;;;;5008690;28;86975;-45
2024/01/15 07:59:56;;;;;;;;;;;-2.50;87.70;;;;;;5009220;28;86650;-45
2024/01/15 08:02:22;;;;;;;;;;;-2.50;87.80;;;;;;5010378;28;87429;-45
2024/01/15 08:04:47;;;;;;;;;;;-2.50;87.70;;;;;;5007320;28;87952;-44
2024/01/15 08:07:13;;;;;;;;;;;-2.40;87.70;;;;;;5007279;28;88357;-45
2024/01/15 08:09:38;;;;;;;;;;;-2.40;87.80;;;;;;5008062;28;87720;-45
2024/01/15 08:12:05;;;;;;;;;;;-2.40;88.00;;;;;;5008184;28;87213;-45
2024/01/15 08:14:31;;;;;;;;;;;-2.40;87.70;;;;;;5006772;28;88462;-45
2024/01/15 08:16:57;;;;;;;;;;;-2.40;87.80;;;;;;5008203;28;87005;-46
2024/01/15 08:19:22;;;;;;;;;;;-2.40;87.70;;;;;;5008553;28;87006;-46
2024/01/15 08:21:48;;;;;;;;;;;-2.40;87.70;;;;;;5005491;28;88483;-45
2024/01/15 08:24:14;;;;;;;;;;;-2.40;87.80;;;;;;5010861;28;86333;-45
2024/01/15 08:26:40;;;;;;;;;;;-2.40;87.60;;;;;;5007205;28;87599;-45
2024/01/15 08:29:05;;;;;;;;;;;-2.40;87.70;;;;;;5008324;28;87008;-44
2024/01/15 08:31:31;;;;;;;;;;;-2.30;87.80;;;;;;5007722;28;87950;-44
2024/01/15 08:33:57;;;;;;;;;;;-2.30;87.70;;;;;;5003189;28;88527;-46
2024/01/15 08:36:24;;;;;;;;;;;-2.40;87.70;;;;;;5006959;28;87103;-45
2024/01/15 08:38:49;;;;;;;;;;;-2.40;87.80;;;;;;5007635;28;87968;-45
2024/01/15 08:41:15;;;;;;;;;;;-2.40;87.90;;;;;;5007313;28;87412;-46
2024/01/15 08:43:40;;;;;;;;;;;-2.40;87.70;;;;;;5006910;28;87789;-45
2024/01/15 08:46:06;;;;;;;;;;;-2.40;88.00;;;;;;5009569;28;87080;-44
2024/01/15 08:48:32;;;;;;;;;;;-2.30;87.50;;;;;;5008699;28;86257;-44
2024/01/15 08:50:58;;;;;;;;;;;-2.30;87.70;;;;;;5006478;28;86976;-45
2024/01/15 08:53:23;;;;;;;;;;;-2.30;87.80;;;;;;5006994;28;87505;-45
2024/01/15 08:55:49;;;;;;;;;;;-2.30;88.00;;;;;;5007089;28;87916;-45
2024/01/15 08:58:15;;;;;;;;;;;-2.30;87.80;;;;;;5007755;28;86967;-47
2024/01/15 09:00:40;;;;;;;;;;;-2.30;87.90;;;;;;5007266;28;87418;-45
2024/01/15 09:03:06;;;;;;;;;;;-2.30;87.50;;;;;;5006768;28;86999;-46
2024/01/15 09:05:31;;;;;;;;;;;-2.30;87.60;;;;;;5005398;28;87944;-45
2024/01/15 09:07:57;;;;;;;;;;;-2.30;87.60;;;;;;5009367;28;87347;-45
2024/01/15 09:10:23;;;;;;;;;;;-2.30;87.70;;;;;;5007113;28;86955;-46
2024/01/15 09:12:51;;;;;;;;;;;-2.30;87.80;;;;;;5002050;28;87790;-46
2024/01/15 09:15:17;;;;;;;;;;;-2.30;87.70;;;;;;5007534;28;87026;-46
2024/01/15 09:17:43;;;;;;;;;;;-2.30;88.30;;;;;;5007297;28;86796;-44
2024/01/15 09:20:08;;;;;;;;;;;-2.30;87.90;;;;;;5005749;28;88504;-47
2024/01/15 09:22:34;;;;;;;;;;;-2.30;88.20;;;;;;5005068;28;87005;-44
2024/01/15 09:25:00;;;;;;;;;;;-2.30;88.50;;;;;;5006856;28;86915;-46
2024/01/15 09:27:28;;;;;;;;;;;-2.30;88.60;;;;;;5007228;28;86721;-46
2024/01/15 09:29:54;;;;;;;;;;;-2.30;88.40;;;;;;5010248;28;86852;-46
2024/01/15 09:32:19;;;;;;;;;;;-2.30;88.30;;;;;;5006487;28;87315;-45
2024/01/15 09:34:48;;;;;;;;;;;-2.30;88.70;;;;;;5003603;28;87436;-45
2024/01/15 09:37:14;;;;;;;;;;;-2.30;88.30;;;;;;5005841;28;87231;-46
2024/01/15 09:39:40;;;;;;;;;;;-2.20;88.40;;;;;;5006413;28;88099;-47
2024/01/15 09:42:05;;;;;;;;;;;-2.30;88.60;;;;;;5006836;28;87034;-44
2024/01/15 09:44:31;;;;;;;;;;;-2.20;88.70;;;;;;5006666;28;87868;-46
2024/01/15 09:46:57;;;;;;;;;;;-2.30;88.70;;;;;;5006723;28;88643;-47
2024/01/15 09:49:23;;;;;;;;;;;-2.20;88.70;;;;;;5006866;28;86982;-46
2024/01/15 09:51:48;;;;;;;;;;;-2.20;88.70;;;;;;5008963;28;87029;-46
2024/01/15 09:54:16;;;;;;;;;;;-2.20;88.70;;;;;;5007078;28;86965;-46
2024/01/15 09:56:46;;;;;;;;;;;-2.30;88.60;;;;;;5003114;28;87063;-47
2024/01/15 09:59:14;;;;;;;;;;;-2.20;89.00;;;;;;5006430;28;87670;-46
2024/01/15 10:01:40;;;;;;;;;;;-2.30;88.70;;;;;;5007111;28;86278;-46
2024/01/15 10:04:06;;;;;;;;;;;-2.30;89.80;;;;;;5006960;28;86948;-46
2024/01/15 10:06:32;;;;;;;;;;;-2.20;89.40;;;;;;5006113;28;87411;-46
2024/01/15 10:08:58;;;;;;;;;;;-2.20;89.10;;;;;;5005653;28;88465;-46
2024/01/15 10:11:23;;;;;;;;;;;-2.20;89.00;;;;;;5008775;28;88737;-46
2024/01/15 10:13:53;;;;;;;;;;;-2.20;89.30;;;;;;5006792;28;87065;-46
2024/01/15 10:16:21;;;;;;;;;;;-2.20;89.60;;;;;;5006091;28;87830;-46
2024/01/15 10:18:47;;;;;;;;;;;-2.20;89.80;;;;;;5005750;28;88337;-46
2024/01/15 10:21:14;;;;;;;;;;;-2.20;89.60;;;;;;5006642;28;86864;-45
2024/01/15 10:23:39;;;;;;;;;;;-2.20;89.70;;;;;;5002550;28;88051;-47
2024/01/15 10:26:05;;;;;;;;;;;-2.20;89.80;;;;;;5005063;28;87744;-48
2024/01/15 10:28:31;;;;;;;;;;;-2.20;90.00;;;;;;5006193;28;87052;-46
2024/01/15 10:30:58;;;;;;;;;;;-2.10;90.00;;;;;;5005665;28;87012;-47
2024/01/15 10:33:25;;;;;;;;;;;-2.10;90.00;;;;;;5007618;28;88241;-46
2024/01/15 10:35:53;;;;;;;;;;;-2.10;90.00;;;;;;5005401;28;86924;-46
2024/01/15 10:38:21;;;;;;;;;;;-2.10;89.90;;;;;;5005202;28;87520;-48
2024/01/15 10:40:54;;;;;;;;;;;-2.10;90.00;;;;;;5005780;28;87601;-47
2024/01/15 10:43:19;;;;;;;;;;;-2.00;90.20;;;;;;5003051;28;86936;-48
2024/01/15 10:45:46;;;;;;;;;;;-2.00;90.00;;;;;;5000760;28;90405;-48
2024/01/15 10:48:11;;;;;;;;;;;-2.00;90.10;;;;;;5006062;28;86813;-46
2024/01/15 10:50:37;;;;;;;;;;;-2.10;90.10;;;;;;5006852;28;86723;-46
2024/01/15 10:53:04;;;;;;;;;;;-2.00;90.10;;;;;;5005268;28;87474;-47
2024/01/15 10:55:30;;;;;;;;;;;-2.00;90.10;;;;;;5008933;28;87588;-49
2024/01/15 10:57:56;;;;;;;;;;;-2.00;90.10;;;;;;5005103;28;87774;-48
2024/01/15 11:00:22;;;;;;;;;;;-2.00;90.10;;;;;;5005578;28;86877;-45
2024/01/15 11:02:48;;;;;;;;;;;-1.90;90.20;;;;;;5004998;28;88075;-47
2024/01/15 11:05:13;;;;;;;;;;;-2.00;90.10;;;;;;5005808;28;87345;-48
2024/01/15 11:07:39;;;;;;;;;;;-1.90;90.10;;;;;;5005570;28;87006;-46
2024/01/15 11:10:05;;;;;;;;;;;-1.90;90.20;;;;;;5005783;28;88144;-47
2024/01/15 11:12:31;;;;;;;;;;;-1.90;90.30;;;;;;5005814;28;87487;-46
2024/01/15 11:15:08;;;;;;;;;;;-1.90;90.30;;;;;;5005702;28;86020;-46
2024/01/15 11:17:54;;;;;;;;;;;-1.80;90.30;;;;;;5003799;28;87128;-46
2024/01/15 11:20:19;;;;;;;;;;;-1.80;90.30;;;;;;5002504;28;87287;-46
2024/01/15 11:22:49;;;;;;;;;;;-1.90;90.20;;;;;;5004735;28;88106;-47
2024/01/15 11:25:15;;;;;;;;;;;-1.80;90.30;;;;;;5005288;28;87639;-46
2024/01/15 11:27:44;;;;;;;;;;;-1.80;90.30;;;;;;5005983;28;87011;-47
2024/01/15 11:30:10;;;;;;;;;;;-1.80;90.40;;;;;;5003958;28;87953;-47
2024/01/15 11:32:36;;;;;;;;;;;-1.80;90.30;;;;;;5008473;28;87489;-46
2024/01/15 11:35:02;;;;;;;;;;;-1.80;90.40;;;;;;5009165;28;87792;-47
2024/01/15 11:37:29;;;;;;;;;;;-1.80;90.40;;;;;;5008486;28;87859;-46
2024/01/15 11:39:56;;;;;;;;;;;-1.80;90.50;;;;;;5010057;28;86732;-47
2024/01/15 11:42:22;;;;;;;;;;;-1.80;90.40;;;;;;5009010;28;87231;-46
2024/01/15 11:44:48;;;;;;;;;;;-1.80;90.50;;;;;;5008405;28;88681;-46
2024/01/15 11:47:14;;;;;;;;;;;-1.80;90.60;;;;;;5006696;28;87949;-47
2024/01/15 11:49:45;;;;;;;;;;;-1.80;90.50;;;;;;5008715;28;88542;-50
2024/01/15 11:52:11;;;;;;;;;;;-1.80;90.60;;;;;;5007595;28;88202;-46
2024/01/15 11:54:39;;;;;;;;;;;-1.80;90.60;;;;;;5007842;28;86991;-47
2024/01/15 11:57:17;;;;;;;;;;;-1.80;90.60;;;;;;5008570;28;86865;-47
2024/01/15 11:59:43;;;;;;;;;;;-1.80;90.60;;;;;;5003319;28;87627;-47
2024/01/15 12:02:11;;;;;;;;;;;-1.80;90.70;;;;;;5011559;28;87032;-47
2024/01/15 12:04:37;;;;;;;;;;;-1.70;90.70;;;;;;5004646;28;87845;-48
2024/01/15 12:07:02;;;;;;;;;;;-1.80;90.70;;;;;;5008377;28;87140;-46
2024/01/15 12:09:29;;;;;;;;;;;-1.70;90.70;;;;;;5005259;28;87859;-47
2024/01/15 12:12:05;;;;;;;;;;;-1.80;90.70;;;;;;5007652;28;88521;-46
2024/01/15 12:14:31;;;;;;;;;;;-1.70;90.70;;;;;;5008434;28;86888;-48
2024/01/15 12:16:57;;;;;;;;;;;-1.70;90.80;;;;;;5000327;28;87352;-47
2024/01/15 12:19:22;;;;;;;;;;;-1.70;90.70;;;;;;5007823;28;87463;-46
2024/01/15 12:21:50;;;;;;;;;;;-1.70;90.70;;;;;;5010794;28;86982;-46
2024/01/15 12:24:16;;;;;;;;;;;-1.70;90.70;;;;;;5001338;28;87542;-47
2024/01/15 12:26:42;;;;;;;;;;;-1.70;90.90;;;;;;5007667;28;87079;-47
2024/01/15 12:29:07;;;;;;;;;;;-1.70;91.00;;;;;;5008884;28;86687;-47
2024/01/15 12:31:34;;;;;;;;;;;-1.70;90.80;;;;;;5007871;28;87353;-46
2024/01/15 12:34:01;;;;;;;;;;;-1.70;90.80;;;;;;5008463;28;86995;-47
2024/01/15 12:36:27;;;;;;;;;;;-1.60;90.90;;;;;;5006843;28;88081;-47
2024/01/15 12:38:52;;;;;;;;;;;-1.60;90.90;;;;;;5002806;28;88781;-47
2024/01/15 12:41:18;;;;;;;;;;;-1.60;90.80;;;;;;5007610;28;86966;-47
2024/01/15 12:43:43;;;;;;;;;;;-1.60;90.80;;;;;;5009988;28;86869;-47
2024/01/15 12:46:09;;;;;;;;;;;-1.60;90.80;;;;;;5005246;28;86976;-47
2024/01/15 12:48:35;;;;;;;;;;;-1.60;90.80;;;;;;5008222;28;86847;-47
2024/01/15 12:51:00;;;;;;;;;;;-1.60;90.80;;;;;;5007866;28;87515;-47
2024/01/15 12:53:26;;;;;;;;;;;-1.60;90.80;;;;;;5008220;28;86224;-48
2024/01/15 12:55:52;;;;;;;;;;;-1.50;90.80;;;;;;5007478;28;87057;-47
2024/01/15 12:58:18;;;;;;;;;;;-1.50;90.80;;;;;;5006484;28;88644;-47
2024/01/15 13:00:43;;;;;;;;;;;-1.50;90.90;;;;;;5007107;28;88083;-47
2024/01/15 13:03:09;;;;;;;;;;;-1.50;91.00;;;;;;5007557;28;88703;-47
2024/01/15 13:05:36;;;;;;;;;;;-1.50;90.80;;;;;;5009784;28;87099;-46
2024/01/15 13:08:03;;;;;;;;;;;-1.40;90.80;;;;;;5007230;28;87986;-46
2024/01/15 13:10:30;;;;;;;;;;;-1.50;90.90;;;;;;5006185;28;88662;-46
2024/01/15 13:12:55;;;;;;;;;;;-1.50;90.90;;;;;;5007120;28;87055;-49
2024/01/15 13:15:21;;;;;;;;;;;-1.40;90.90;;;;;;5007435;28;86810;-48
2024/01/15 13:17:46;;;;;;;;;;;-1.40;91.00;;;;;;5007285;28;86604;-48
2024/01/15 13:20:12;;;;;;;;;;;-1.40;91.00;;;;;;5007531;28;86908;-47
2024/01/15 13:22:39;;;;;;;;;;;-1.40;91.00;;;;;;5007633;28;86996;-47
2024/01/15 13:25:07;;;;;;;;;;;-1.40;91.00;;;;;;5001042;28;88293;-48
2024/01/15 13:27:34;;;;;;;;;;;-1.40;91.10;;;;;;5008639;28;87061;-46
2024/01/15 13:30:00;;;;;;;;;;;-1.40;91.00;;;;;;5006778;28;88115;-47
2024/01/15 13:32:26;;;;;;;;;;;-1.40;91.00;;;;;;5006275;28;86863;-47
2024/01/15 13:34:51;;;;;;;;;;;-1.40;91.00;;;;;;5006951;28;88040;-47
2024/01/15 13:37:17;;;;;;;;;;;-1.30;91.10;;;;;;5006747;28;87569;-46
2024/01/15 13:39:42;;;;;;;;;;;-1.30;91.00;;;;;;5006424;28;87568;-49
2024/01/15 13:42:11;;;;;;;;;;;-1.30;91.10;;;;;;5007419;28;86796;-47
2024/01/15 13:44:37;;;;;;;;;;;-1.30;91.00;;;;;;5005169;28;88530;-47
2024/01/15 13:47:03;;;;;;;;;;;-1.30;91.00;;;;;;5006897;28;87004;-48
2024/01/15 13:49:29;;;;;;;;;;;-1.20;91.10;;;;;;5009012;28;87833;-48
2024/01/15 13:51:54;;;;;;;;;;;-1.20;91.10;;;;;;5005922;28;87028;-48
2024/01/15 13:54:20;;;;;;;;;;;-1.20;91.10;;;;;;5006911;28;86925;-45
2024/01/15 13:56:47;;;;;;;;;;;-1.30;91.10;;;;;;5004824;28;88468;-46
2024/01/15 13:59:12;;;;;;;;;;;-1.10;92.40;;;;;;4997208;28;87019;-47
2024/01/15 14:01:38;;;;;;;;;;;-1.20;92.20;;;;;;5005960;28;87729;-48
2024/01/15 14:04:04;;;;;;;;;;;-1.30;92.20;;;;;;5005921;28;87329;-46
2024/01/15 14:06:29;;;;;;;;;;;-1.40;92.30;;;;;;5007272;28;86211;-47
2024/01/15 14:08:55;;;;;;;;;;;-1.40;92.40;;;;;;5009031;28;87219;-46